createdAt,value
2023-04-15T00:01:45.589Z,10.13
2023-04-15T00:04:12.159Z,10.06
2023-04-15T00:06:39.685Z,9.99
2023-04-15T00:09:06.151Z,9.87
2023-04-15T00:11:32.715Z,9.79
2023-04-15T00:13:59.295Z,9.78
2023-04-15T00:16:25.812Z,9.73
2023-04-15T00:18:52.388Z,9.75
2023-04-15T00:21:18.758Z,9.74
2023-04-15T00:23:45.237Z,9.73
2023-04-15T00:26:12.640Z,9.71
2023-04-15T00:28:39.280Z,9.63
2023-04-15T00:31:05.716Z,9.65
2023-04-15T00:33:32.282Z,9.72
2023-04-15T00:35:58.948Z,9.72
2023-04-15T00:38:25.555Z,9.65
2023-04-15T00:40:53.310Z,9.60
2023-04-15T00:43:20.124Z,9.48
2023-04-15T00:45:47.347Z,9.45
2023-04-15T00:48:14.212Z,9.52
2023-04-15T00:50:40.663Z,9.48
2023-04-15T00:53:07.074Z,9.48
2023-04-15T00:55:33.821Z,9.34
2023-04-15T00:58:00.459Z,9.38
2023-04-15T01:00:27.212Z,9.33
2023-04-15T01:02:53.797Z,9.35
2023-04-15T01:05:20.345Z,9.41
2023-04-15T01:07:47.897Z,9.43
2023-04-15T01:10:14.347Z,9.43
2023-04-15T01:12:40.775Z,9.30
2023-04-15T01:15:08.054Z,9.21
2023-04-15T01:17:34.807Z,9.17
2023-04-15T01:20:01.681Z,9.08
2023-04-15T01:22:28.787Z,9.04
2023-04-15T01:25:02.299Z,9.09
2023-04-15T01:27:28.745Z,9.10
2023-04-15T01:29:55.121Z,9.03
2023-04-15T01:32:21.541Z,8.99
2023-04-15T01:34:47.960Z,8.93
2023-04-15T01:37:14.412Z,8.93
2023-04-15T01:39:41.110Z,8.99
2023-04-15T01:42:07.592Z,8.98
2023-04-15T01:44:34.007Z,8.97
2023-04-15T01:47:00.848Z,8.96
2023-04-15T01:49:27.600Z,8.97
2023-04-15T01:51:54.179Z,8.96
2023-04-15T01:54:20.649Z,8.84
2023-04-15T01:56:47.240Z,8.78
2023-04-15T01:59:13.775Z,8.88
2023-04-15T02:01:40.928Z,8.92
2023-04-15T02:04:08.044Z,8.98
2023-04-15T02:06:34.567Z,9.06
2023-04-15T02:09:01.079Z,9.02
2023-04-15T02:11:27.709Z,9.07
2023-04-15T02:13:54.084Z,9.08
2023-04-15T02:16:20.505Z,9.03
2023-04-15T02:18:47.494Z,9.01
2023-04-15T02:21:14.618Z,8.94
2023-04-15T02:23:41.076Z,8.86
2023-04-15T02:26:08.065Z,8.82
2023-04-15T02:28:34.520Z,8.77
2023-04-15T02:31:02.151Z,8.77
2023-04-15T02:33:28.521Z,8.71
2023-04-15T02:35:54.947Z,8.74
2023-04-15T02:38:21.338Z,8.70
2023-04-15T02:40:49.653Z,8.75
2023-04-15T02:43:17.186Z,8.78
2023-04-15T02:45:44.144Z,8.85
2023-04-15T02:48:11.021Z,8.85
2023-04-15T02:50:39.875Z,8.77
2023-04-15T02:53:06.937Z,8.77
2023-04-15T02:55:33.497Z,8.75
2023-04-15T02:58:01.013Z,8.72
2023-04-15T03:00:27.644Z,8.63
2023-04-15T03:03:01.962Z,8.63
2023-04-15T03:05:28.612Z,8.59
2023-04-15T03:07:55.101Z,8.63
2023-04-15T03:10:22.237Z,8.60
2023-04-15T03:12:48.945Z,8.65
2023-04-15T03:15:15.678Z,8.66
2023-04-15T03:17:42.158Z,8.66
2023-04-15T03:20:09.567Z,8.64
2023-04-15T03:22:36.032Z,8.65
2023-04-15T03:25:02.358Z,8.58
2023-04-15T03:27:28.754Z,8.62
2023-04-15T03:29:56.758Z,8.65
2023-04-15T03:32:23.201Z,8.62
2023-04-15T03:34:49.655Z,8.60
2023-04-15T03:37:16.089Z,8.51
2023-04-15T03:39:42.433Z,8.46
2023-04-15T03:42:08.780Z,8.42
2023-04-15T03:44:35.146Z,8.37
2023-04-15T03:47:01.716Z,8.31
2023-04-15T03:49:28.063Z,8.30
2023-04-15T03:51:54.488Z,8.24
2023-04-15T03:54:20.857Z,8.22
2023-04-15T03:56:47.200Z,8.21
2023-04-15T03:59:13.560Z,8.25
2023-04-15T04:01:39.973Z,8.14
2023-04-15T04:04:06.716Z,8.12
2023-04-15T04:06:33.591Z,8.10
2023-04-15T04:09:00.097Z,8.09
2023-04-15T04:11:26.629Z,8.10
2023-04-15T04:13:53.048Z,8.09
2023-04-15T04:16:20.007Z,8.10
2023-04-15T04:18:46.510Z,7.95
2023-04-15T04:21:12.928Z,7.92
2023-04-15T04:23:39.575Z,7.89
2023-04-15T04:26:06.100Z,7.88
2023-04-15T04:28:32.575Z,7.89
2023-04-15T04:30:59.370Z,7.87
2023-04-15T04:33:25.916Z,7.82
2023-04-15T04:35:52.364Z,7.74
2023-04-15T04:38:18.769Z,7.73
2023-04-15T04:40:45.310Z,7.70
2023-04-15T04:43:11.744Z,7.70
2023-04-15T04:45:38.225Z,7.75
2023-04-15T04:48:07.142Z,7.70
2023-04-15T04:50:34.017Z,7.68
2023-04-15T04:53:00.959Z,7.68
2023-04-15T04:55:27.788Z,7.68
2023-04-15T04:57:54.200Z,7.76
2023-04-15T05:00:20.658Z,7.77
2023-04-15T05:02:47.303Z,7.75
2023-04-15T05:05:13.829Z,7.75
2023-04-15T05:07:40.611Z,7.75
2023-04-15T05:10:07.676Z,7.80
2023-04-15T05:12:34.308Z,7.78
2023-04-15T05:15:01.000Z,7.78
2023-04-15T05:17:27.580Z,7.76
2023-04-15T05:19:54.119Z,7.72
2023-04-15T05:22:20.538Z,7.76
2023-04-15T05:24:47.037Z,7.79
2023-04-15T05:27:13.423Z,7.79
2023-04-15T05:29:39.877Z,7.86
2023-04-15T05:32:06.622Z,7.86
2023-04-15T05:34:32.992Z,7.87
2023-04-15T05:36:59.489Z,7.88
2023-04-15T05:39:26.618Z,7.83
2023-04-15T05:41:53.330Z,7.82
2023-04-15T05:44:19.790Z,7.87
2023-04-15T05:46:46.466Z,7.87
2023-04-15T05:49:12.855Z,7.87
2023-04-15T05:51:39.192Z,7.84
2023-04-15T05:54:05.712Z,7.76
2023-04-15T05:56:32.421Z,7.62
2023-04-15T05:59:00.249Z,7.58
2023-04-15T06:01:26.836Z,7.58
2023-04-15T06:03:53.379Z,7.55
2023-04-15T06:06:20.451Z,7.60
2023-04-15T06:08:47.185Z,7.62
2023-04-15T06:11:13.631Z,7.61
2023-04-15T06:13:40.102Z,7.65
2023-04-15T06:16:06.887Z,7.63
2023-04-15T06:18:33.432Z,7.65
2023-04-15T06:20:59.847Z,7.65
2023-04-15T06:23:27.018Z,7.67
2023-04-15T06:25:54.370Z,7.72
2023-04-15T06:28:21.019Z,7.73
2023-04-15T06:30:47.447Z,7.72
2023-04-15T06:33:13.834Z,7.71
2023-04-15T06:35:40.505Z,7.73
2023-04-15T06:38:07.095Z,7.78
2023-04-15T06:40:33.599Z,7.83
2023-04-15T06:42:59.959Z,7.84
2023-04-15T06:45:26.605Z,7.85
2023-04-15T06:47:53.108Z,7.87
2023-04-15T06:50:19.510Z,7.94
2023-04-15T06:52:46.098Z,7.95
2023-04-15T06:55:12.574Z,7.99
2023-04-15T06:57:38.990Z,8.01
2023-04-15T07:00:05.985Z,8.06
2023-04-15T07:02:32.578Z,8.07
2023-04-15T07:04:59.062Z,8.05
2023-04-15T07:07:25.666Z,8.11
2023-04-15T07:09:53.648Z,8.17
2023-04-15T07:12:20.719Z,8.21
2023-04-15T07:14:47.366Z,8.25
2023-04-15T07:17:13.859Z,8.31
2023-04-15T07:19:40.564Z,8.33
2023-04-15T07:22:07.632Z,8.37
2023-04-15T07:24:33.946Z,8.42
2023-04-15T07:27:01.277Z,8.44
2023-04-15T07:29:27.972Z,8.42
2023-04-15T07:31:54.339Z,8.44
2023-04-15T07:34:21.116Z,8.47
2023-04-15T07:36:50.600Z,8.50
2023-04-15T07:39:17.605Z,8.54
2023-04-15T07:41:44.009Z,8.60
2023-04-15T07:44:10.529Z,8.67
2023-04-15T07:46:38.271Z,8.77
2023-04-15T07:49:04.907Z,8.86
2023-04-15T07:51:32.245Z,8.93
2023-04-15T07:53:59.064Z,8.97
2023-04-15T07:56:26.451Z,9.01
2023-04-15T07:58:52.965Z,9.08
2023-04-15T08:01:19.374Z,9.16
2023-04-15T08:03:45.949Z,9.18
2023-04-15T08:06:12.447Z,9.19
2023-04-15T08:08:38.821Z,9.22
2023-04-15T08:11:05.336Z,9.26
2023-04-15T08:13:31.700Z,9.29
2023-04-15T08:16:18.446Z,9.36
2023-04-15T08:18:45.649Z,9.39
2023-04-15T08:21:12.199Z,9.45
2023-04-15T08:23:39.252Z,9.51
2023-04-15T08:26:05.805Z,9.53
2023-04-15T08:28:32.380Z,9.57
2023-04-15T08:30:58.862Z,9.65
2023-04-15T08:33:25.704Z,9.69
2023-04-15T08:35:52.080Z,9.73
2023-04-15T08:38:18.819Z,9.73
2023-04-15T08:40:46.098Z,9.85
2023-04-15T08:43:30.297Z,9.84
2023-04-15T08:46:00.137Z,9.86
2023-04-15T08:48:29.101Z,9.92
2023-04-15T08:50:55.769Z,9.95
2023-04-15T08:53:22.326Z,9.92
2023-04-15T08:55:52.554Z,9.90
2023-04-15T08:58:19.799Z,9.93
2023-04-15T09:00:46.635Z,9.97
2023-04-15T09:03:13.728Z,9.99
2023-04-15T09:05:40.112Z,10.02
2023-04-15T09:08:06.635Z,10.06
2023-04-15T09:10:33.724Z,10.17
2023-04-15T09:13:01.953Z,10.29
2023-04-15T09:15:29.868Z,10.25
2023-04-15T09:17:59.215Z,10.41
2023-04-15T09:20:25.569Z,10.50
2023-04-15T09:22:52.277Z,10.57
2023-04-15T09:25:21.744Z,10.67
2023-04-15T09:27:49.556Z,10.70
2023-04-15T09:30:16.817Z,10.75
2023-04-15T09:32:57.254Z,10.83
2023-04-15T09:35:25.287Z,10.90
2023-04-15T09:37:52.947Z,10.84
2023-04-15T09:40:42.472Z,10.85
2023-04-15T09:43:12.795Z,10.90
2023-04-15T09:45:46.948Z,10.96
2023-04-15T09:48:22.248Z,10.87
2023-04-15T09:50:49.722Z,10.77
2023-04-15T09:53:19.077Z,10.77
2023-04-15T09:55:49.284Z,10.79
2023-04-15T09:58:21.178Z,10.82
2023-04-15T10:00:49.446Z,10.80
2023-04-15T10:03:28.498Z,10.81
2023-04-15T10:05:57.402Z,10.87
2023-04-15T10:08:25.908Z,10.91
2023-04-15T10:10:52.715Z,10.94
2023-04-15T10:13:22.357Z,10.92
2023-04-15T10:15:56.004Z,10.92
2023-04-15T10:18:26.669Z,10.97
2023-04-15T10:20:53.876Z,11.03
2023-04-15T10:23:21.719Z,11.12
2023-04-15T10:25:51.634Z,11.21
2023-04-15T10:28:18.235Z,11.23
2023-04-15T10:30:44.788Z,11.31
2023-04-15T10:33:11.406Z,11.37
2023-04-15T10:35:39.230Z,11.45
2023-04-15T10:38:33.745Z,11.55
2023-04-15T10:41:17.957Z,11.62
2023-04-15T10:43:57.923Z,11.72
2023-04-15T10:46:41.542Z,11.71
2023-04-15T10:49:17.081Z,11.62
2023-04-15T10:51:52.798Z,11.55
2023-04-15T10:54:25.392Z,11.47
2023-04-15T10:57:16.878Z,11.51
2023-04-15T11:00:04.572Z,11.53
2023-04-15T11:02:42.941Z,11.49
2023-04-15T11:05:17.361Z,11.49
2023-04-15T11:07:49.397Z,11.54
2023-04-15T11:10:20.629Z,11.56
2023-04-15T11:12:57.148Z,11.61
2023-04-15T11:15:45.663Z,11.63
2023-04-15T11:18:14.963Z,11.68
2023-04-15T11:20:45.031Z,11.70
2023-04-15T11:23:15.316Z,11.63
2023-04-15T11:25:43.013Z,11.67
2023-04-15T11:28:09.926Z,11.76
2023-04-15T11:30:37.732Z,11.87
2023-04-15T11:33:06.065Z,11.97
2023-04-15T11:35:33.418Z,11.98
2023-04-15T11:38:08.710Z,11.94
2023-04-15T11:40:35.751Z,11.92
2023-04-15T11:43:20.290Z,11.88
2023-04-15T11:45:53.122Z,11.97
2023-04-15T11:48:22.122Z,12.03
2023-04-15T11:50:54.491Z,12.09
2023-04-15T11:53:20.921Z,12.11
2023-04-15T11:55:50.792Z,12.11
2023-04-15T11:58:23.185Z,12.11
2023-04-15T12:01:00.021Z,12.11
2023-04-15T12:03:29.089Z,12.18
2023-04-15T12:06:16.526Z,12.07
2023-04-15T12:08:54.107Z,12.11
2023-04-15T12:11:32.459Z,12.21
2023-04-15T12:14:05.104Z,12.17
2023-04-15T12:16:35.233Z,12.14
2023-04-15T12:19:09.653Z,12.14
2023-04-15T12:21:38.567Z,12.01
2023-04-15T12:24:07.427Z,12.02
2023-04-15T12:26:48.491Z,12.01
2023-04-15T12:29:17.217Z,11.88
2023-04-15T12:31:57.780Z,11.90
2023-04-15T12:34:33.019Z,11.75
2023-04-15T12:37:01.896Z,11.76
2023-04-15T12:39:31.589Z,11.82
2023-04-15T12:42:00.143Z,11.77
2023-04-15T12:44:27.265Z,11.88
2023-04-15T12:46:54.227Z,11.85
2023-04-15T12:49:21.947Z,11.74
2023-04-15T12:51:53.609Z,11.83
2023-04-15T12:54:20.422Z,11.88
2023-04-15T12:56:48.216Z,11.75
2023-04-15T12:59:16.056Z,11.62
2023-04-15T13:01:42.543Z,11.69
2023-04-15T13:04:09.496Z,11.75
2023-04-15T13:06:36.848Z,11.81
2023-04-15T13:09:05.257Z,11.84
2023-04-15T13:11:33.819Z,11.74
2023-04-15T13:14:08.850Z,11.65
2023-04-15T13:16:36.299Z,11.59
2023-04-15T13:19:03.941Z,11.48
2023-04-15T13:21:34.970Z,11.52
2023-04-15T13:24:01.906Z,11.53
2023-04-15T13:26:28.292Z,11.60
2023-04-15T13:28:54.615Z,11.57
2023-04-15T13:31:21.089Z,11.53
2023-04-15T13:33:47.509Z,11.52
2023-04-15T13:36:13.977Z,11.47
2023-04-15T13:38:40.399Z,11.48
2023-04-15T13:41:06.730Z,11.45
2023-04-15T13:43:34.215Z,11.45
2023-04-15T13:46:00.712Z,11.39
2023-04-15T13:48:27.172Z,11.42
2023-04-15T13:50:53.544Z,11.39
2023-04-15T13:53:19.958Z,11.32
2023-04-15T13:55:46.357Z,11.24
2023-04-15T13:58:12.744Z,11.22
2023-04-15T14:00:39.176Z,11.27
2023-04-15T14:03:05.791Z,11.23
2023-04-15T14:05:32.912Z,11.15
2023-04-15T14:08:00.377Z,11.05
2023-04-15T14:10:26.908Z,11.15
2023-04-15T14:12:53.416Z,11.23
2023-04-15T14:15:19.890Z,11.08
2023-04-15T14:17:46.347Z,11.05
2023-04-15T14:20:14.040Z,11.09
2023-04-15T14:22:42.848Z,11.07
2023-04-15T14:25:10.503Z,10.95
2023-04-15T14:27:38.132Z,11.01
2023-04-15T14:30:04.983Z,10.98
2023-04-15T14:32:31.601Z,10.98
2023-04-15T14:34:57.913Z,10.94
2023-04-15T14:37:24.268Z,10.95
2023-04-15T14:39:50.843Z,10.83
2023-04-15T14:42:17.261Z,10.91
2023-04-15T14:44:44.742Z,10.87
2023-04-15T14:47:11.244Z,10.83
2023-04-15T14:49:37.736Z,10.86
2023-04-15T14:52:04.309Z,10.78
2023-04-15T14:54:30.901Z,10.82
2023-04-15T14:56:57.329Z,10.76
2023-04-15T14:59:23.917Z,10.67
2023-04-15T15:01:50.665Z,10.54
2023-04-15T15:04:17.403Z,10.44
2023-04-15T15:06:44.032Z,10.42
2023-04-15T15:09:10.487Z,10.42
2023-04-15T15:11:36.825Z,10.50
2023-04-15T15:14:03.245Z,10.65
2023-04-15T15:16:29.770Z,10.61
2023-04-15T15:18:56.411Z,10.49
2023-04-15T15:21:22.900Z,10.37
2023-04-15T15:23:49.404Z,10.37
2023-04-15T15:26:15.830Z,10.33
2023-04-15T15:28:42.373Z,10.17
2023-04-15T15:31:09.004Z,10.15
2023-04-15T15:33:35.593Z,10.24
2023-04-15T15:36:03.432Z,10.27
2023-04-15T15:38:29.802Z,10.32
2023-04-15T15:40:56.195Z,10.17
2023-04-15T15:43:22.665Z,10.16
2023-04-15T15:45:51.787Z,10.18
2023-04-15T15:48:18.544Z,10.19
2023-04-15T15:50:45.703Z,10.07
2023-04-15T15:53:12.465Z,10.07
2023-04-15T15:55:38.856Z,10.02
2023-04-15T15:58:05.188Z,10.00
2023-04-15T16:00:31.629Z,9.93
2023-04-15T16:05:27.546Z,9.80
2023-04-15T16:07:53.965Z,9.78
2023-04-15T16:10:20.543Z,9.87
2023-04-15T16:12:46.944Z,9.84
2023-04-15T16:15:13.833Z,9.89
2023-04-15T16:17:40.324Z,9.92
2023-04-15T16:20:08.359Z,9.90
2023-04-15T16:22:35.344Z,9.79
2023-04-15T16:25:02.009Z,9.84
2023-04-15T16:27:28.477Z,9.84
2023-04-15T16:29:54.874Z,9.77
2023-04-15T16:32:21.470Z,9.69
2023-04-15T16:34:48.063Z,9.66
2023-04-15T16:37:14.476Z,9.66
2023-04-15T16:39:40.930Z,9.73
2023-04-15T16:42:07.386Z,9.70
2023-04-15T16:44:34.002Z,9.56
2023-04-15T16:47:02.224Z,9.46
2023-04-15T16:49:29.707Z,9.46
2023-04-15T16:51:56.201Z,9.42
2023-04-15T16:54:22.748Z,9.45
2023-04-15T16:56:49.136Z,9.52
2023-04-15T16:59:15.714Z,9.55
2023-04-15T17:01:42.152Z,9.44
2023-04-15T17:04:08.670Z,9.44
2023-04-15T17:06:35.209Z,9.47
2023-04-15T17:09:01.600Z,9.46
2023-04-15T17:11:28.401Z,9.53
2023-04-15T17:13:54.769Z,9.52
2023-04-15T17:16:21.313Z,9.57
2023-04-15T17:18:47.773Z,9.56
2023-04-15T17:21:15.982Z,9.49
2023-04-15T17:23:42.353Z,9.32
2023-04-15T17:26:08.742Z,9.22
2023-04-15T17:28:35.076Z,9.22
2023-04-15T17:31:01.512Z,9.25
2023-04-15T17:34:03.537Z,9.24
2023-04-15T17:36:14.527Z,9.27
2023-04-15T17:38:40.932Z,9.38
2023-04-15T17:41:07.816Z,9.32
2023-04-15T17:43:34.248Z,9.28
2023-04-15T17:46:00.815Z,9.36
2023-04-15T17:48:27.396Z,9.34
2023-04-15T17:50:53.893Z,9.32
2023-04-15T17:53:20.403Z,9.29
2023-04-15T17:55:46.792Z,9.24
2023-04-15T17:58:13.203Z,9.30
2023-04-15T18:00:39.513Z,9.30
2023-04-15T18:03:06.102Z,9.30
2023-04-15T18:05:32.681Z,9.31
2023-04-15T18:07:59.209Z,9.39
2023-04-15T18:10:25.720Z,9.39
2023-04-15T18:12:52.066Z,9.26
2023-04-15T18:15:18.998Z,9.33
2023-04-15T18:17:45.855Z,9.21
2023-04-15T18:20:12.908Z,9.19
2023-04-15T18:22:39.742Z,9.18
2023-04-15T18:25:06.859Z,9.21
2023-04-15T18:27:34.328Z,9.18
2023-04-15T18:30:00.794Z,9.20
2023-04-15T18:32:31.673Z,9.19
2023-04-15T18:34:58.513Z,9.18
2023-04-15T18:37:26.171Z,9.19
2023-04-15T18:39:52.667Z,9.18
2023-04-15T18:42:19.711Z,9.24
2023-04-15T18:44:46.076Z,9.23
2023-04-15T18:47:12.607Z,9.14
2023-04-15T18:49:39.082Z,9.12
2023-04-15T18:52:05.417Z,9.13
2023-04-15T18:54:31.875Z,9.09
2023-04-15T18:56:58.282Z,9.09
2023-04-15T18:59:30.122Z,9.09
2023-04-15T19:01:57.652Z,9.12
2023-04-15T19:04:24.198Z,9.15
2023-04-15T19:06:50.893Z,9.02
2023-04-15T19:09:17.376Z,9.02
2023-04-15T19:11:43.939Z,9.04
2023-04-15T19:14:11.213Z,9.01
2023-04-15T19:16:37.701Z,8.98
2023-04-15T19:19:06.572Z,8.95
2023-04-15T19:21:33.818Z,8.98
2023-04-15T19:24:01.249Z,8.88
2023-04-15T19:26:27.732Z,8.93
2023-04-15T19:28:54.911Z,8.95
2023-04-15T19:31:21.306Z,8.86
2023-04-15T19:33:47.680Z,8.88
2023-04-15T19:36:14.115Z,8.89
2023-04-15T19:38:40.685Z,8.96
2023-04-15T19:41:07.037Z,8.95
2023-04-15T19:43:33.676Z,8.95
2023-04-15T19:46:03.915Z,8.89
2023-04-15T19:48:30.448Z,8.92
2023-04-15T19:50:57.292Z,9.00
2023-04-15T19:53:25.657Z,8.94
2023-04-15T19:55:52.122Z,8.92
2023-04-15T19:58:18.472Z,8.93
2023-04-15T20:00:44.957Z,8.93
2023-04-15T20:03:11.632Z,8.89
2023-04-15T20:05:38.100Z,8.86
2023-04-15T20:08:04.592Z,8.92
2023-04-15T20:10:31.733Z,8.89
2023-04-15T20:12:58.354Z,8.82
2023-04-15T20:15:24.912Z,8.90
2023-04-15T20:17:51.516Z,8.99
2023-04-15T20:20:18.275Z,8.92
2023-04-15T20:22:44.752Z,8.96
2023-04-15T20:25:11.354Z,8.98
2023-04-15T20:27:37.698Z,9.00
2023-04-15T20:30:05.030Z,8.98
2023-04-15T20:32:35.881Z,8.96
2023-04-15T20:35:03.770Z,8.97
2023-04-15T20:37:32.829Z,8.95
2023-04-15T20:40:00.357Z,9.00
2023-04-15T20:42:26.923Z,9.01
2023-04-15T20:44:53.347Z,9.01
2023-04-15T20:47:19.846Z,9.00
2023-04-15T20:49:47.415Z,9.00
2023-04-15T20:52:13.905Z,9.01
2023-04-15T20:54:40.294Z,9.04
2023-04-15T20:57:06.879Z,8.96
2023-04-15T20:59:34.820Z,8.92
2023-04-15T21:02:01.655Z,8.92
2023-04-15T21:04:28.139Z,8.85
2023-04-15T21:06:54.528Z,8.86
2023-04-15T21:09:20.890Z,8.91
2023-04-15T21:12:00.640Z,8.93
2023-04-15T21:14:27.813Z,8.94
2023-04-15T21:16:54.339Z,8.93
2023-04-15T21:19:20.896Z,8.92
2023-04-15T21:21:47.296Z,8.87
2023-04-15T21:24:13.716Z,8.88
2023-04-15T21:26:40.909Z,8.93
2023-04-15T21:29:10.408Z,8.86
2023-04-15T21:31:37.886Z,8.86
2023-04-15T21:34:04.346Z,8.86
2023-04-15T21:36:31.537Z,8.81
2023-04-15T21:38:57.982Z,8.79
2023-04-15T21:41:24.522Z,8.83
2023-04-15T21:43:51.038Z,8.85
2023-04-15T21:46:22.540Z,8.85
2023-04-15T21:48:52.598Z,8.83
2023-04-15T21:51:18.991Z,8.84
2023-04-15T21:53:45.610Z,8.93
2023-04-15T21:56:12.094Z,8.88
2023-04-15T21:58:38.497Z,8.86
2023-04-15T22:01:05.527Z,8.84
2023-04-15T22:03:34.061Z,8.88
2023-04-15T22:06:04.275Z,9.00
2023-04-15T22:08:36.115Z,9.01
2023-04-15T22:11:20.480Z,8.95
2023-04-15T22:13:46.903Z,9.02
2023-04-15T22:16:13.308Z,9.08
2023-04-15T22:18:39.723Z,9.02
2023-04-15T22:21:06.188Z,8.92
2023-04-15T22:23:32.648Z,8.91
2023-04-15T22:25:59.664Z,8.93
2023-04-15T22:28:26.085Z,8.93
2023-04-15T22:30:54.540Z,8.85
2023-04-15T22:33:21.122Z,8.87
2023-04-15T22:35:47.458Z,8.92
2023-04-15T22:38:13.844Z,8.86
2023-04-15T22:40:40.443Z,8.88
2023-04-15T22:43:06.858Z,8.97
2023-04-15T22:45:33.248Z,9.04
2023-04-15T22:47:59.650Z,8.98
2023-04-15T22:50:26.200Z,8.89
2023-04-15T22:52:52.639Z,8.95
2023-04-15T22:55:19.022Z,8.99
2023-04-15T22:57:45.543Z,8.99
2023-04-15T23:00:12.329Z,8.98
2023-04-15T23:02:38.849Z,8.99
2023-04-15T23:05:12.581Z,8.96
2023-04-15T23:07:39.573Z,8.97
2023-04-15T23:10:06.961Z,8.95
2023-04-15T23:12:33.345Z,8.93
2023-04-15T23:14:59.745Z,8.94
2023-04-15T23:17:26.757Z,8.95
2023-04-15T23:19:53.197Z,8.97
2023-04-15T23:22:19.628Z,8.92
2023-04-15T23:24:46.208Z,8.95
2023-04-15T23:27:12.674Z,8.89
2023-04-15T23:29:39.098Z,8.83
2023-04-15T23:32:05.953Z,8.89
2023-04-15T23:34:32.547Z,8.83
2023-04-15T23:36:58.872Z,8.73
2023-04-15T23:39:25.568Z,8.78
2023-04-15T23:41:51.969Z,8.79
2023-04-15T23:44:18.320Z,8.84
2023-04-15T23:46:44.764Z,8.82
2023-04-15T23:49:11.351Z,8.82
2023-04-15T23:51:37.833Z,8.83
2023-04-15T23:54:04.289Z,8.86
2023-04-15T23:56:31.391Z,8.86
2023-04-15T23:58:57.796Z,8.88
